Time;durP1;ratioP1;P1;durP2;ratioP2;P2;SDS_P1;SDS_P2;PMS_P1;PMS_P2;Temp;Humidity;BMP_temperature;BMP_pressure;BME280_temperature;BME280_humidity;BME280_pressure;Samples;Min_cycle;Max_cycle;Signal;HPM_P1;HPM_P2
2024/01/28 00:01:38;;;;;;;;;;;;;;;-0.12;100.00;98086.72;5087621;28;19939;-71
2024/01/28 00:04:04;;;;;;;;;;;;;;;-0.11;100.00;98080.63;5087520;28;20244;-71
2024/01/28 00:06:30;;;;;;;;;;;;;;;-0.12;100.00;98082.38;5087346;28;19988;-71
2024/01/28 00:08:56;;;;;;;;;;;;;;;-0.11;100.00;98075.47;5087311;28;19969;-70
2024/01/28 00:11:22;;;;;;;;;;;;;;;-0.11;100.00;98080.63;5087410;28;19940;-69
2024/01/28 00:13:48;;;;;;;;;;;;;;;-0.15;100.00;98074.84;5088162;28;19941;-71
2024/01/28 00:16:14;;;;;;;;;;;;;;;-0.16;100.00;98073.22;5087761;28;19946;-71
2024/01/28 00:18:40;;;;;;;;;;;;;;;-0.17;100.00;98071.56;5087278;28;20108;-71
2024/01/28 00:21:05;;;;;;;;;;;;;;;-0.16;100.00;98073.22;5087227;28;19931;-71
2024/01/28 00:23:31;;;;;;;;;;;;;;;-0.17;100.00;98068.97;5087161;28;19970;-71
2024/01/28 00:25:57;;;;;;;;;;;;;;;-0.18;100.00;98071.69;5087898;28;19943;-71
2024/01/28 00:28:23;;;;;;;;;;;;;;;-0.18;100.00;98069.13;5087584;28;19957;-71
2024/01/28 00:30:49;;;;;;;;;;;;;;;-0.21;100.00;98065.81;5087074;28;19962;-73
2024/01/28 00:33:15;;;;;;;;;;;;;;;-0.21;100.00;98068.41;5085902;28;19941;-71
2024/01/28 00:35:40;;;;;;;;;;;;;;;-0.22;100.00;98060.78;5086917;28;19979;-71
2024/01/28 00:38:06;;;;;;;;;;;;;;;-0.21;100.00;98059.81;5086875;28;20018;-70
2024/01/28 00:40:32;;;;;;;;;;;;;;;-0.24;100.00;98060.88;5086879;28;19946;-70
2024/01/28 00:42:58;;;;;;;;;;;;;;;-0.25;100.00;98056.66;5087359;28;19938;-71
2024/01/28 00:45:24;;;;;;;;;;;;;;;-0.27;100.00;98053.38;5085656;28;20253;-71
2024/01/28 00:47:50;;;;;;;;;;;;;;;-0.29;100.00;98057.81;5086719;28;20241;-68
2024/01/28 00:50:16;;;;;;;;;;;;;;;-0.31;100.00;98046.78;5086532;28;19943;-72
2024/01/28 00:52:43;;;;;;;;;;;;;;;-0.34;100.00;98048.75;5086648;28;19941;-72
2024/01/28 00:55:09;;;;;;;;;;;;;;;-0.35;100.00;98052.28;5086501;28;19941;-72
2024/01/28 00:57:35;;;;;;;;;;;;;;;-0.37;100.00;98049.81;5086968;28;19995;-72
2024/01/28 01:00:01;;;;;;;;;;;;;;;-0.38;100.00;98050.72;5086514;28;19942;-73
2024/01/28 01:02:27;;;;;;;;;;;;;;;-0.38;100.00;98048.13;5086439;28;19934;-72
2024/01/28 01:04:53;;;;;;;;;;;;;;;-0.41;100.00;98046.63;5085939;28;20210;-73
2024/01/28 01:07:19;;;;;;;;;;;;;;;-0.43;100.00;98040.75;5086338;28;19984;-71
2024/01/28 01:09:44;;;;;;;;;;;;;;;-0.47;100.00;98036.72;5085700;28;19961;-74
2024/01/28 01:12:10;;;;;;;;;;;;;;;-0.50;100.00;98036.97;5086547;28;19939;-73
2024/01/28 01:14:37;;;;;;;;;;;;;;;-0.52;100.00;98038.00;5086255;28;20267;-73
2024/01/28 01:17:04;;;;;;;;;;;;;;;-0.56;100.00;98034.00;5085770;28;19961;-73
2024/01/28 01:19:29;;;;;;;;;;;;;;;-0.58;100.00;98035.88;5086674;28;19934;-73
2024/01/28 01:21:57;;;;;;;;;;;;;;;-0.59;100.00;98039.38;5086130;28;19938;-72
2024/01/28 01:24:23;;;;;;;;;;;;;;;-0.61;100.00;98034.31;5086045;28;19935;-73
2024/01/28 01:26:49;;;;;;;;;;;;;;;-0.63;100.00;98031.88;5086540;28;19943;-73
2024/01/28 01:29:14;;;;;;;;;;;;;;;-0.64;100.00;98024.22;5084805;28;19948;-73
2024/01/28 01:31:40;;;;;;;;;;;;;;;-0.67;100.00;98029.63;5086466;28;19942;-73
2024/01/28 01:34:06;;;;;;;;;;;;;;;-0.69;100.00;98027.13;5085898;28;20236;-73
2024/01/28 01:36:32;;;;;;;;;;;;;;;-0.71;100.00;98021.28;5085354;28;19955;-73
2024/01/28 01:38:58;;;;;;;;;;;;;;;-0.72;100.00;98023.94;5085836;28;19981;-73
2024/01/28 01:41:25;;;;;;;;;;;;;;;-0.72;100.00;98026.53;5085684;28;19969;-73
2024/01/28 01:43:52;;;;;;;;;;;;;;;-0.74;100.00;98029.19;5086207;28;20207;-73
2024/01/28 01:46:17;;;;;;;;;;;;;;;-0.77;100.00;98026.84;5085652;28;19937;-72
2024/01/28 01:48:43;;;;;;;;;;;;;;;-0.77;100.00;98023.47;5085576;28;19931;-72
2024/01/28 01:51:11;;;;;;;;;;;;;;;-0.77;100.00;98029.44;5085545;28;19935;-72
2024/01/28 01:53:38;;;;;;;;;;;;;;;-0.79;100.00;98022.75;5085509;28;19939;-72
2024/01/28 01:56:05;;;;;;;;;;;;;;;-0.83;100.00;98020.38;5085368;28;20095;-72
2024/01/28 01:58:31;;;;;;;;;;;;;;;-0.86;100.00;98014.59;5085355;28;19942;-72
2024/01/28 02:00:58;;;;;;;;;;;;;;;-0.89;100.00;98010.50;5086123;28;19949;-68
2024/01/28 02:03:26;;;;;;;;;;;;;;;-0.91;100.00;98014.09;5085450;28;19931;-72
2024/01/28 02:05:52;;;;;;;;;;;;;;;-0.95;100.00;98008.34;5085061;28;19990;-72
2024/01/28 02:08:18;;;;;;;;;;;;;;;-0.97;100.00;98002.47;5084018;28;20004;-73
2024/01/28 02:10:45;;;;;;;;;;;;;;;-0.99;100.00;98001.75;5084858;28;19964;-72
2024/01/28 02:13:11;;;;;;;;;;;;;;;-0.99;100.00;97995.78;5085060;28;19942;-72
2024/01/28 02:15:37;;;;;;;;;;;;;;;-0.99;100.00;98001.75;5085026;28;19968;-72
2024/01/28 02:18:04;;;;;;;;;;;;;;;-0.98;100.00;98000.03;5083822;28;19950;-72
2024/01/28 02:20:30;;;;;;;;;;;;;;;-0.98;100.00;97998.28;5084893;28;19942;-67
2024/01/28 02:22:56;;;;;;;;;;;;;;;-0.99;100.00;97993.22;5084943;28;19946;-73
2024/01/28 02:25:22;;;;;;;;;;;;;;;-1.01;100.00;97990.75;5084788;28;19946;-73
2024/01/28 02:27:48;;;;;;;;;;;;;;;-1.02;100.00;97989.94;5084796;28;19939;-72
2024/01/28 02:30:14;;;;;;;;;;;;;;;-1.06;100.00;97993.63;5083693;28;19936;-73
2024/01/28 02:32:50;;;;;;;;;;;;;;;-1.06;100.00;97995.41;5084109;28;20135;-73
2024/01/28 02:35:16;;;;;;;;;;;;;;;-1.06;100.00;97995.41;5085173;28;20115;-72
2024/01/28 02:37:42;;;;;;;;;;;;;;;-1.07;100.00;97991.16;5084545;28;19950;-70
2024/01/28 02:40:08;;;;;;;;;;;;;;;-1.08;100.00;97989.53;5084606;28;19978;-71
2024/01/28 02:42:34;;;;;;;;;;;;;;;-1.09;100.00;97993.88;5083670;28;19963;-68
2024/01/28 02:45:00;;;;;;;;;;;;;;;-1.09;100.00;97988.72;5084479;28;19934;-67
2024/01/28 02:47:26;;;;;;;;;;;;;;;-1.10;100.00;97979.34;5084353;28;20250;-68
2024/01/28 02:49:52;;;;;;;;;;;;;;;-1.09;100.00;97978.41;5083332;28;19941;-68
2024/01/28 02:52:18;;;;;;;;;;;;;;;-1.08;100.00;97979.25;5084339;28;19933;-69
2024/01/28 02:54:44;;;;;;;;;;;;;;;-1.08;100.00;97972.31;5084363;28;19944;-69
2024/01/28 02:57:10;;;;;;;;;;;;;;;-1.06;100.00;97980.78;5084256;28;19958;-72
2024/01/28 02:59:35;;;;;;;;;;;;;;;-1.07;100.00;97976.56;5084280;28;19939;-70
2024/01/28 03:02:01;;;;;;;;;;;;;;;-1.06;100.00;97978.19;5083874;28;19938;-71
2024/01/28 03:04:27;;;;;;;;;;;;;;;-1.05;100.00;97968.72;5084176;28;19936;-71
2024/01/28 03:06:53;;;;;;;;;;;;;;;-1.08;100.00;97962.03;5084210;28;19960;-71
2024/01/28 03:09:19;;;;;;;;;;;;;;;-1.09;100.00;97969.84;5084102;28;19954;-71
2024/01/28 03:11:45;;;;;;;;;;;;;;;-1.11;100.00;97969.16;5084130;28;19968;-70
2024/01/28 03:14:10;;;;;;;;;;;;;;;-1.12;100.00;97970.06;5083211;28;19988;-70
2024/01/28 03:16:36;;;;;;;;;;;;;;;-1.15;100.00;97971.13;5084323;28;19937;-67
2024/01/28 03:19:02;;;;;;;;;;;;;;;-1.17;100.00;97972.16;5084080;28;19932;-72
2024/01/28 03:21:28;;;;;;;;;;;;;;;-1.20;100.00;97977.50;5084008;28;19936;-72
2024/01/28 03:23:54;;;;;;;;;;;;;;;-1.23;100.00;97973.41;5084016;28;19938;-73
2024/01/28 03:26:20;;;;;;;;;;;;;;;-1.26;100.00;97976.16;5083954;28;20249;-72
2024/01/28 03:28:46;;;;;;;;;;;;;;;-1.26;100.00;97983.91;5084729;28;19960;-73
2024/01/28 03:31:12;;;;;;;;;;;;;;;-1.27;100.00;97983.06;5083941;28;19938;-73
2024/01/28 03:33:37;;;;;;;;;;;;;;;-1.26;100.00;97981.31;5084611;28;19930;-68
2024/01/28 03:36:03;;;;;;;;;;;;;;;-1.28;100.00;97972.88;5082894;28;19938;-71
2024/01/28 03:38:29;;;;;;;;;;;;;;;-1.31;100.00;97976.50;5083766;28;19952;-72
2024/01/28 03:40:55;;;;;;;;;;;;;;;-1.34;100.00;97969.00;5084329;28;20206;-72
2024/01/28 03:43:21;;;;;;;;;;;;;;;-1.34;100.00;97965.59;5084573;28;19948;-72
2024/01/28 03:45:47;;;;;;;;;;;;;;;-1.35;100.00;97963.94;5083810;28;19934;-72
2024/01/28 03:48:12;;;;;;;;;;;;;;;-1.36;100.00;97962.31;5084557;28;19937;-72
2024/01/28 03:50:38;;;;;;;;;;;;;;;-1.41;100.00;97960.03;5083750;28;19941;-70
2024/01/28 03:53:04;;;;;;;;;;;;;;;-1.42;100.00;97968.69;5083734;28;19935;-68
2024/01/28 03:55:30;;;;;;;;;;;;;;;-1.43;100.00;97954.16;5083715;28;19943;-73
2024/01/28 03:57:56;;;;;;;;;;;;;;;-1.47;100.00;97955.31;5083577;28;19950;-72
2024/01/28 04:00:28;;;;;;;;;;;;;;;-1.48;100.00;97953.69;5083725;28;19932;-72
2024/01/28 04:02:56;;;;;;;;;;;;;;;-1.51;100.00;97957.28;5083674;28;19939;-72
2024/01/28 04:05:23;;;;;;;;;;;;;;;-1.52;100.00;97955.63;5083854;28;20150;-73
2024/01/28 04:07:48;;;;;;;;;;;;;;;-1.52;100.00;97960.78;5083542;28;19947;-73
2024/01/28 04:10:15;;;;;;;;;;;;;;;-1.55;100.00;97960.19;5083613;28;20005;-69
2024/01/28 04:12:41;;;;;;;;;;;;;;;-1.57;100.00;97965.41;5083045;28;20210;-67
2024/01/28 04:15:07;;;;;;;;;;;;;;;-1.59;100.00;97963.88;5083522;28;19980;-67
2024/01/28 04:17:33;;;;;;;;;;;;;;;-1.61;100.00;97955.44;5082360;28;19989;-67
2024/01/28 04:19:58;;;;;;;;;;;;;;;-1.61;100.00;97956.25;5082353;28;19963;-69
2024/01/28 04:22:25;;;;;;;;;;;;;;;-1.63;100.00;97958.94;5083917;28;19926;-69
2024/01/28 04:24:52;;;;;;;;;;;;;;;-1.65;100.00;97953.06;5082294;28;19955;-67
2024/01/28 04:27:17;;;;;;;;;;;;;;;-1.65;100.00;97958.22;5087120;28;20234;-67
2024/01/28 04:29:43;;;;;;;;;;;;;;;-1.66;100.00;97959.16;5087115;28;19933;-72
2024/01/28 04:32:12;;;;;;;;;;;;;;;-1.68;100.00;97958.44;5087086;28;19932;-71
2024/01/28 04:34:37;;;;;;;;;;;;;;;-1.70;100.00;97950.00;5087802;28;19936;-72
2024/01/28 04:37:03;;;;;;;;;;;;;;;-1.70;100.00;97946.56;5086897;28;20018;-72
2024/01/28 04:39:29;;;;;;;;;;;;;;;-1.73;100.00;97951.94;5087715;28;20274;-72
2024/01/28 04:41:55;;;;;;;;;;;;;;;-1.75;100.00;97946.09;5086888;28;19953;-72
2024/01/28 04:44:21;;;;;;;;;;;;;;;-1.76;100.00;97945.28;5086780;28;19931;-73
2024/01/28 04:46:48;;;;;;;;;;;;;;;-1.76;100.00;97942.69;5086801;28;20256;-68
2024/01/28 04:49:14;;;;;;;;;;;;;;;-1.78;100.00;97949.69;5087274;28;19945;-68
2024/01/28 04:51:40;;;;;;;;;;;;;;;-1.78;100.00;97943.72;5087504;28;19943;-68
2024/01/28 04:54:06;;;;;;;;;;;;;;;-1.78;100.00;97948.88;5086622;28;19935;-68
2024/01/28 04:56:32;;;;;;;;;;;;;;;-1.81;100.00;97944.72;5086586;28;20167;-68
2024/01/28 04:58:58;;;;;;;;;;;;;;;-1.82;100.00;97950.81;5086566;28;19996;-68
2024/01/28 05:01:24;;;;;;;;;;;;;;;-1.84;100.00;97952.66;5086554;28;19938;-67
2024/01/28 05:03:50;;;;;;;;;;;;;;;-1.87;100.00;97951.13;5086058;28;19955;-68
2024/01/28 05:06:15;;;;;;;;;;;;;;;-1.86;100.00;97957.91;5086259;28;19963;-68
2024/01/28 05:08:41;;;;;;;;;;;;;;;-1.88;100.00;97952.03;5086377;28;19956;-67
2024/01/28 05:11:07;;;;;;;;;;;;;;;-1.87;100.00;97950.28;5086313;28;19950;-67
2024/01/28 05:13:33;;;;;;;;;;;;;;;-1.89;100.00;97952.97;5086268;28;19940;-67
2024/01/28 05:15:59;;;;;;;;;;;;;;;-1.89;100.00;97941.84;5086318;28;19939;-67
2024/01/28 05:18:26;;;;;;;;;;;;;;;-1.91;100.00;97948.84;5086890;28;19959;-67
2024/01/28 05:20:51;;;;;;;;;;;;;;;-1.92;100.00;97952.34;5086137;28;19927;-67
2024/01/28 05:23:17;;;;;;;;;;;;;;;-1.94;100.00;97956.78;5086433;28;19985;-72
2024/01/28 05:25:43;;;;;;;;;;;;;;;-1.95;100.00;97953.38;5086115;28;19945;-71
2024/01/28 05:28:11;;;;;;;;;;;;;;;-1.98;100.00;97958.72;5086590;28;19939;-73
2024/01/28 05:30:36;;;;;;;;;;;;;;;-1.97;100.00;97960.38;5085526;28;19949;-73
2024/01/28 05:33:04;;;;;;;;;;;;;;;-1.99;100.00;97954.50;5085936;28;20009;-71
2024/01/28 05:35:32;;;;;;;;;;;;;;;-1.98;100.00;97952.75;5086384;28;19940;-71
2024/01/28 05:37:58;;;;;;;;;;;;;;;-2.01;100.00;97958.94;5084423;28;19961;-70
2024/01/28 05:40:24;;;;;;;;;;;;;;;-2.04;100.00;97953.97;5085762;28;20236;-71
2024/01/28 05:42:50;;;;;;;;;;;;;;;-2.05;100.00;97958.31;5085777;28;19944;-68
2024/01/28 05:45:15;;;;;;;;;;;;;;;-2.07;100.00;97961.91;5085663;28;19953;-71
2024/01/28 05:47:41;;;;;;;;;;;;;;;-2.09;100.00;97967.16;5085560;28;19945;-71
2024/01/28 05:50:08;;;;;;;;;;;;;;;-2.10;100.00;97962.94;5086095;28;19995;-71
2024/01/28 05:52:33;;;;;;;;;;;;;;;-2.14;100.00;97964.06;5085593;28;19930;-71
2024/01/28 05:54:59;;;;;;;;;;;;;;;-2.15;100.00;97957.25;5085486;28;19961;-70
2024/01/28 05:57:25;;;;;;;;;;;;;;;-2.16;100.00;97965.06;5084224;28;19932;-70
2024/01/28 05:59:51;;;;;;;;;;;;;;;-2.17;100.00;97966.00;5085403;28;19936;-71
2024/01/28 06:02:17;;;;;;;;;;;;;;;-2.18;100.00;97959.19;5085365;28;19931;-71
2024/01/28 06:04:43;;;;;;;;;;;;;;;-2.19;100.00;97967.84;5085309;28;19988;-70
2024/01/28 06:07:09;;;;;;;;;;;;;;;-2.18;100.00;97961.78;5085106;28;19970;-70
2024/01/28 06:09:35;;;;;;;;;;;;;;;-2.18;100.00;97962.63;5083976;28;19964;-70
2024/01/28 06:12:01;;;;;;;;;;;;;;;-2.17;100.00;97968.56;5085969;28;19943;-71
2024/01/28 06:14:27;;;;;;;;;;;;;;;-2.20;100.00;97956.75;5085146;28;19938;-72
2024/01/28 06:16:53;;;;;;;;;;;;;;;-2.20;100.00;97964.47;5085056;28;19954;-70
2024/01/28 06:19:19;;;;;;;;;;;;;;;-2.21;100.00;97960.22;5084973;28;20252;-71
2024/01/28 06:21:45;;;;;;;;;;;;;;;-2.18;100.00;97964.34;5085792;28;20207;-69
2024/01/28 06:24:10;;;;;;;;;;;;;;;-2.15;100.00;97970.13;5084902;28;20107;-70
2024/01/28 06:26:38;;;;;;;;;;;;;;;-2.13;100.00;97970.03;5084811;28;20128;-69
2024/01/28 06:29:04;;;;;;;;;;;;;;;-2.11;100.00;97969.00;5084747;28;19962;-70
2024/01/28 06:31:30;;;;;;;;;;;;;;;-2.09;100.00;97967.16;5084784;28;19941;-70
2024/01/28 06:33:56;;;;;;;;;;;;;;;-2.09;100.00;97967.16;5084790;28;19943;-70
2024/01/28 06:36:21;;;;;;;;;;;;;;;-2.08;100.00;97968.81;5085185;28;19941;-71
2024/01/28 06:38:48;;;;;;;;;;;;;;;-2.05;100.00;97970.34;5085410;28;19956;-72
2024/01/28 06:41:14;;;;;;;;;;;;;;;-2.03;100.00;97971.06;5085167;28;19940;-71
2024/01/28 06:43:40;;;;;;;;;;;;;;;-2.01;100.00;97965.84;5084846;28;20212;-72
2024/01/28 06:46:06;;;;;;;;;;;;;;;-2.01;100.00;97964.06;5084537;28;19969;-71
2024/01/28 06:48:31;;;;;;;;;;;;;;;-2.01;100.00;97956.38;5084308;28;19942;-73
2024/01/28 06:50:57;;;;;;;;;;;;;;;-2.00;100.00;97959.75;5084398;28;19945;-72
2024/01/28 06:53:23;;;;;;;;;;;;;;;-1.99;100.00;97966.56;5084350;28;19940;-71
2024/01/28 06:55:50;;;;;;;;;;;;;;;-2.01;100.00;97966.66;5084394;28;19946;-68
2024/01/28 06:58:15;;;;;;;;;;;;;;;-2.01;100.00;97964.06;5084281;28;19949;-72
2024/01/28 07:00:41;;;;;;;;;;;;;;;-2.02;100.00;97971.88;5084271;28;19933;-71
2024/01/28 07:03:07;;;;;;;;;;;;;;;-2.03;100.00;97973.63;5083136;28;19941;-72
2024/01/28 07:05:33;;;;;;;;;;;;;;;-2.03;100.00;97972.81;5084592;28;19963;-73
2024/01/28 07:07:59;;;;;;;;;;;;;;;-2.05;100.00;97970.34;5084550;28;20018;-72
2024/01/28 07:10:25;;;;;;;;;;;;;;;-2.04;100.00;97971.97;5083077;28;19938;-72
2024/01/28 07:12:51;;;;;;;;;;;;;;;-2.05;100.00;97971.16;5084160;28;19941;-72
2024/01/28 07:15:16;;;;;;;;;;;;;;;-2.06;100.00;97969.53;5084648;28;19939;-68
2024/01/28 07:17:42;;;;;;;;;;;;;;;-2.06;100.00;97966.97;5084021;28;19952;-73
2024/01/28 07:20:09;;;;;;;;;;;;;;;-2.06;100.00;97966.09;5084085;28;19978;-74
2024/01/28 07:22:35;;;;;;;;;;;;;;;-2.03;100.00;97975.41;5084001;28;19936;-73
2024/01/28 07:25:01;;;;;;;;;;;;;;;-2.00;100.00;97972.59;5084009;28;19942;-72
2024/01/28 07:27:27;;;;;;;;;;;;;;;-1.99;100.00;97975.09;5083554;28;19948;-72
2024/01/28 07:29:53;;;;;;;;;;;;;;;-1.96;100.00;97977.44;5084071;28;19933;-72
2024/01/28 07:32:19;;;;;;;;;;;;;;;-1.93;100.00;97969.53;5084265;28;19986;-71
2024/01/28 07:34:44;;;;;;;;;;;;;;;-1.88;100.00;97967.47;5083966;28;19941;-72
2024/01/28 07:37:10;;;;;;;;;;;;;;;-1.78;100.00;97965.13;5083967;28;19946;-67
2024/01/28 07:39:36;;;;;;;;;;;;;;;-1.60;100.00;97960.47;5083831;28;19993;-67
2024/01/28 07:42:04;;;;;;;;;;;;;;;-1.33;100.00;97968.06;5083870;28;19936;-67
2024/01/28 07:44:29;;;;;;;;;;;;;;;-1.02;100.00;97961.59;5083878;28;19940;-68
2024/01/28 07:46:55;;;;;;;;;;;;;;;-0.70;100.00;97960.25;5084369;28;19939;-68
2024/01/28 07:49:21;;;;;;;;;;;;;;;0.27;100.00;97966.06;5083786;28;19941;-71
2024/01/28 07:51:47;;;;;;;;;;;;;;;1.35;100.00;97951.66;5084868;28;20162;-68
2024/01/28 07:54:14;;;;;;;;;;;;;;;2.13;100.00;97954.00;5083835;28;20126;-68
2024/01/28 07:56:39;;;;;;;;;;;;;;;2.41;100.00;97949.91;5083639;28;19941;-68
2024/01/28 07:59:05;;;;;;;;;;;;;;;2.45;100.00;97946.09;5082509;28;20269;-67
2024/01/28 08:01:32;;;;;;;;;;;;;;;2.42;100.00;97944.59;5086399;28;19938;-68
2024/01/28 08:03:58;;;;;;;;;;;;;;;2.36;100.00;97942.53;5087642;28;19939;-68
2024/01/28 08:06:24;;;;;;;;;;;;;;;2.35;100.00;97945.25;5087430;28;20269;-69
2024/01/28 08:08:50;;;;;;;;;;;;;;;2.36;100.00;97952.88;5087565;28;20256;-68
2024/01/28 08:11:16;;;;;;;;;;;;;;;2.39;100.00;97944.88;5088426;28;19932;-71
2024/01/28 08:13:42;;;;;;;;;;;;;;;2.44;100.00;97947.88;5087525;28;20249;-71
2024/01/28 08:16:08;;;;;;;;;;;;;;;2.54;100.00;97944.50;5087455;28;20034;-71
2024/01/28 08:18:34;;;;;;;;;;;;;;;2.64;100.00;97946.19;5087331;28;19950;-71
2024/01/28 08:21:00;;;;;;;;;;;;;;;2.77;100.00;97947.72;5088186;28;19939;-72
2024/01/28 08:23:29;;;;;;;;;;;;;;;2.90;100.00;97943.16;5087870;28;19969;-72
2024/01/28 08:25:55;;;;;;;;;;;;;;;3.07;100.00;97944.28;5087785;28;19935;-71
2024/01/28 08:28:21;;;;;;;;;;;;;;;3.27;100.00;97941.72;5087998;28;19932;-70
2024/01/28 08:30:47;;;;;;;;;;;;;;;3.46;100.00;97946.91;5087208;28;19945;-70
2024/01/28 08:33:13;;;;;;;;;;;;;;;3.64;100.00;97941.88;5087093;28;19940;-70
2024/01/28 08:35:39;;;;;;;;;;;;;;;3.81;100.00;97925.59;5087050;28;20122;-70
2024/01/28 08:38:05;;;;;;;;;;;;;;;3.85;100.00;97913.19;5087684;28;19948;-70
2024/01/28 08:40:31;;;;;;;;;;;;;;;3.88;100.00;97925.84;5085897;28;19945;-70
2024/01/28 08:42:57;;;;;;;;;;;;;;;4.04;100.00;97935.69;5087500;28;20123;-70
2024/01/28 08:45:23;;;;;;;;;;;;;;;4.26;100.00;97931.94;5086869;28;19937;-71
2024/01/28 08:47:49;;;;;;;;;;;;;;;4.44;100.00;97932.03;5086056;28;20000;-71
2024/01/28 08:50:15;;;;;;;;;;;;;;;4.62;100.00;97937.28;5087362;28;19935;-71
2024/01/28 08:52:42;;;;;;;;;;;;;;;4.83;100.00;97935.28;5086785;28;19938;-71
2024/01/28 08:55:08;;;;;;;;;;;;;;;5.00;100.00;97931.09;5086725;28;19935;-71
2024/01/28 08:57:34;;;;;;;;;;;;;;;5.16;100.00;97924.41;5086628;28;20224;-71
2024/01/28 09:00:00;;;;;;;;;;;;;;;5.33;100.00;97926.19;5086697;28;19949;-71
2024/01/28 09:02:26;;;;;;;;;;;;;;;5.49;100.00;97915.13;5087107;28;19939;-72
2024/01/28 09:04:52;;;;;;;;;;;;;;;5.62;100.00;97925.97;5086503;28;19974;-74
2024/01/28 09:07:18;;;;;;;;;;;;;;;5.74;100.00;97923.97;5086426;28;20047;-70
2024/01/28 09:09:44;;;;;;;;;;;;;;;5.79;100.00;97920.91;5086473;28;20025;-71
2024/01/28 09:12:10;;;;;;;;;;;;;;;5.84;100.00;97911.69;5086430;28;19965;-71
2024/01/28 09:14:36;;;;;;;;;;;;;;;5.92;100.00;97910.09;5086374;28;19935;-71
2024/01/28 09:17:02;;;;;;;;;;;;;;;5.98;100.00;97919.94;5086831;28;19960;-71
2024/01/28 09:19:28;;;;;;;;;;;;;;;6.09;100.00;97917.09;5086168;28;19956;-71
2024/01/28 09:21:54;;;;;;;;;;;;;;;6.20;100.00;97936.88;5086774;28;20121;-71
2024/01/28 09:24:20;;;;;;;;;;;;;;;6.26;100.00;97908.41;5086685;28;19932;-70
2024/01/28 09:26:46;;;;;;;;;;;;;;;6.38;100.00;97905.53;5086150;28;20130;-73
2024/01/28 09:29:12;;;;;;;;;;;;;;;6.41;100.00;97887.81;5086110;28;19969;-73
2024/01/28 09:31:38;;;;;;;;;;;;;;;6.32;100.00;97901.78;5085941;28;20253;-72
2024/01/28 09:34:04;;;;;;;;;;;;;;;6.37;100.00;97919.53;5086007;28;19938;-72
2024/01/28 09:36:30;;;;;;;;;;;;;;;6.55;100.00;97916.84;5085971;28;19938;-73
2024/01/28 09:38:56;;;;;;;;;;;;;;;6.69;100.00;97906.66;5085873;28;19952;-73
2024/01/28 09:41:24;;;;;;;;;;;;;;;6.95;100.00;97913.59;5085853;28;19942;-71
2024/01/28 09:43:50;;;;;;;;;;;;;;;7.21;100.00;97910.06;5085847;28;20242;-68
2024/01/28 09:46:17;;;;;;;;;;;;;;;7.41;100.00;97893.16;5085806;28;19941;-69
2024/01/28 09:48:44;;;;;;;;;;;;;;;7.67;100.00;97911.25;5085715;28;19936;-68
2024/01/28 09:51:10;;;;;;;;;;;;;;;7.89;100.00;97899.31;5085673;28;19938;-68
2024/01/28 09:53:36;;;;;;;;;;;;;;;7.97;100.00;97866.34;5085611;28;19933;-69
2024/01/28 09:56:03;;;;;;;;;;;;;;;8.03;100.00;97878.75;5085628;28;19948;-68
2024/01/28 09:58:29;;;;;;;;;;;;;;;8.04;96.39;97849.84;5085928;28;19951;-69
2024/01/28 10:00:54;;;;;;;;;;;;;;;8.06;98.97;97876.63;5085531;28;20235;-72
2024/01/28 10:03:21;;;;;;;;;;;;;;;8.11;100.00;97899.66;5085686;28;19954;-71
2024/01/28 10:05:47;;;;;;;;;;;;;;;8.05;100.00;97900.31;5085171;28;20269;-71
2024/01/28 10:08:13;;;;;;;;;;;;;;;8.12;100.00;97903.88;5084184;28;19965;-71
2024/01/28 10:10:40;;;;;;;;;;;;;;;8.23;100.00;97907.94;5084949;28;19963;-71
2024/01/28 10:13:06;;;;;;;;;;;;;;;8.35;100.00;97901.38;5085986;28;20117;-71
2024/01/28 10:15:32;;;;;;;;;;;;;;;8.48;100.00;97886.03;5085679;28;20233;-71
2024/01/28 10:17:58;;;;;;;;;;;;;;;8.49;100.00;97882.41;5085058;28;19941;-73
2024/01/28 10:20:25;;;;;;;;;;;;;;;8.65;100.00;97885.94;5085138;28;20032;-71
2024/01/28 10:22:52;;;;;;;;;;;;;;;8.83;100.00;97883.91;5084579;28;19945;-69
2024/01/28 10:25:19;;;;;;;;;;;;;;;9.02;98.43;97863.53;5084960;28;19948;-68
2024/01/28 10:27:45;;;;;;;;;;;;;;;9.14;99.16;97864.75;5085434;28;19939;-69
2024/01/28 10:30:13;;;;;;;;;;;;;;;9.32;100.00;97922.06;5084902;28;19959;-68
2024/01/28 10:32:39;;;;;;;;;;;;;;;9.53;97.51;97845.47;5084858;28;20226;-69
2024/01/28 10:35:07;;;;;;;;;;;;;;;9.46;93.01;97802.66;5085659;28;19948;-69
2024/01/28 10:37:34;;;;;;;;;;;;;;;9.43;95.96;97844.91;5084727;28;19936;-73
2024/01/28 10:40:03;;;;;;;;;;;;;;;9.39;94.66;97823.50;5084651;28;19950;-71
2024/01/28 10:42:31;;;;;;;;;;;;;;;9.37;92.74;97828.13;5085448;28;19956;-72
2024/01/28 10:44:57;;;;;;;;;;;;;;;9.38;96.40;97844.63;5084299;28;20208;-72
2024/01/28 10:47:25;;;;;;;;;;;;;;;9.36;92.57;97810.75;5084528;28;19971;-73
2024/01/28 10:49:56;;;;;;;;;;;;;;;9.20;88.07;97793.41;5084442;28;20124;-72
2024/01/28 10:52:22;;;;;;;;;;;;;;;9.29;92.13;97808.03;5084523;28;19946;-72
2024/01/28 10:54:49;;;;;;;;;;;;;;;9.38;91.43;97792.25;5084694;28;19936;-71
2024/01/28 10:57:15;;;;;;;;;;;;;;;9.35;92.63;97796.88;5084990;28;19936;-72
2024/01/28 10:59:42;;;;;;;;;;;;;;;9.42;94.26;97798.78;5083930;28;20247;-72
2024/01/28 11:02:08;;;;;;;;;;;;;;;9.39;93.89;97780.81;5085134;28;20107;-72
2024/01/28 11:04:35;;;;;;;;;;;;;;;9.50;97.45;97828.31;5083395;28;20245;-72
2024/01/28 11:07:02;;;;;;;;;;;;;;;9.72;94.28;97795.22;5084186;28;19970;-72
2024/01/28 11:09:28;;;;;;;;;;;;;;;9.81;94.04;97787.28;5084148;28;20026;-73
2024/01/28 11:11:54;;;;;;;;;;;;;;;9.88;88.47;97748.88;5084202;28;19943;-72
2024/01/28 11:14:20;;;;;;;;;;;;;;;9.99;88.24;97750.22;5084248;28;19983;-73
2024/01/28 11:16:46;;;;;;;;;;;;;;;10.10;95.42;97792.53;5084186;28;19938;-68
2024/01/28 11:19:14;;;;;;;;;;;;;;;10.29;93.34;97787.72;5084100;28;20144;-68
2024/01/28 11:21:40;;;;;;;;;;;;;;;10.25;91.04;97776.00;5083016;28;19936;-68
2024/01/28 11:24:10;;;;;;;;;;;;;;;10.36;88.03;97734.38;5084601;28;19938;-68
2024/01/28 11:26:36;;;;;;;;;;;;;;;10.45;87.63;97726.41;5084603;28;19936;-68
2024/01/28 11:29:05;;;;;;;;;;;;;;;10.56;83.62;97707.56;5084115;28;19948;-69
2024/01/28 11:31:36;;;;;;;;;;;;;;;10.76;86.62;97721.69;5084032;28;19938;-72
2024/01/28 11:34:11;;;;;;;;;;;;;;;10.75;85.73;97719.25;5084595;28;19949;-70
2024/01/28 11:36:40;;;;;;;;;;;;;;;10.75;82.87;97679.88;5083234;28;19938;-71
2024/01/28 11:39:11;;;;;;;;;;;;;;;10.88;83.05;97705.47;5083912;28;19955;-70
2024/01/28 11:41:40;;;;;;;;;;;;;;;11.07;88.41;97720.56;5084792;28;20111;-71
2024/01/28 11:44:07;;;;;;;;;;;;;;;11.09;87.38;97713.31;5083924;28;19935;-70
2024/01/28 11:46:34;;;;;;;;;;;;;;;11.14;78.54;97649.72;5083880;28;19937;-71
2024/01/28 11:48:59;;;;;;;;;;;;;;;11.23;83.23;97695.00;5083864;28;19935;-70
2024/01/28 11:51:31;;;;;;;;;;;;;;;11.26;83.81;97699.91;5083871;28;19995;-71
2024/01/28 11:54:00;;;;;;;;;;;;;;;11.11;85.44;97698.19;5083846;28;19935;-72
2024/01/28 11:56:35;;;;;;;;;;;;;;;11.18;84.55;97688.53;5083774;28;19932;-72
2024/01/28 11:59:06;;;;;;;;;;;;;;;11.28;80.16;97669.00;5083705;28;19960;-72
2024/01/28 12:01:32;;;;;;;;;;;;;;;11.26;87.02;97708.59;5083707;28;19964;-72
2024/01/28 12:03:58;;;;;;;;;;;;;;;11.09;80.24;97666.03;5084244;28;19946;-72
2024/01/28 12:06:27;;;;;;;;;;;;;;;11.11;86.86;97702.63;5083472;28;20025;-72
2024/01/28 12:08:53;;;;;;;;;;;;;;;11.22;86.40;97690.78;5083604;28;20001;-73
2024/01/28 12:11:23;;;;;;;;;;;;;;;11.23;80.76;97661.69;5084187;28;19956;-71
2024/01/28 12:13:49;;;;;;;;;;;;;;;11.07;80.50;97648.88;5083582;28;19940;-71
2024/01/28 12:16:22;;;;;;;;;;;;;;;10.93;88.11;97703.06;5083289;28;19936;-71
2024/01/28 12:18:48;;;;;;;;;;;;;;;10.88;87.80;97708.88;5083465;28;19951;-71
2024/01/28 12:21:15;;;;;;;;;;;;;;;10.90;90.37;97717.38;5084070;28;20094;-71
2024/01/28 12:23:41;;;;;;;;;;;;;;;11.07;99.73;97761.75;5084069;28;19935;-71
2024/01/28 12:26:08;;;;;;;;;;;;;;;11.31;83.30;97661.53;5083077;28;21073;-71
2024/01/28 12:28:34;;;;;;;;;;;;;;;11.25;85.43;97667.56;5083459;28;19967;-73
2024/01/28 12:31:00;;;;;;;;;;;;;;;11.06;88.66;97704.97;5083159;28;20122;-72
2024/01/28 12:33:27;;;;;;;;;;;;;;;10.87;86.56;97696.75;5083400;28;19939;-72
2024/01/28 12:35:53;;;;;;;;;;;;;;;10.90;86.07;97677.22;5083318;28;19949;-72